Time;durP1;ratioP1;P1;durP2;ratioP2;P2;SDS_P1;SDS_P2;PMS_P1;PMS_P2;Temp;Humidity;BMP_temperature;BMP_pressure;BME280_temperature;BME280_humidity;BME280_pressure;Samples;Min_cycle;Max_cycle;Signal;HPM_P1;HPM_P2
2020/12/04 00:00:07;;;;;;;12.27;7.97;;;4.30;99.90;;;;;;5090679;28;20816;-71
2020/12/04 00:02:33;;;;;;;11.20;7.20;;;4.20;99.90;;;;;;5091280;28;20447;-72
2020/12/04 00:04:59;;;;;;;9.17;7.63;;;4.20;99.90;;;;;;5089997;28;20218;-72
2020/12/04 00:07:24;;;;;;;12.20;7.57;;;4.20;99.90;;;;;;5088933;28;20181;-72
2020/12/04 00:09:50;;;;;;;8.80;6.90;;;4.20;99.90;;;;;;5089533;28;20280;-72
2020/12/04 00:12:15;;;;;;;11.40;8.80;;;4.20;99.90;;;;;;5086663;28;20193;-72
2020/12/04 00:14:41;;;;;;;9.00;7.23;;;4.20;99.90;;;;;;5091046;28;20177;-72
2020/12/04 00:17:07;;;;;;;9.40;6.63;;;4.20;99.90;;;;;;5092268;28;20525;-72
2020/12/04 00:19:32;;;;;;;10.40;7.20;;;4.30;99.90;;;;;;5092078;28;20208;-72
2020/12/04 00:21:58;;;;;;;10.57;8.70;;;4.20;99.90;;;;;;5090973;28;20177;-72
2020/12/04 00:24:24;;;;;;;7.50;6.00;;;4.20;99.90;;;;;;5090974;28;20702;-72
2020/12/04 00:26:50;;;;;;;10.20;7.47;;;4.20;99.90;;;;;;5093656;28;20551;-72
2020/12/04 00:29:15;;;;;;;15.97;6.80;;;4.20;99.90;;;;;;5091605;28;20687;-71
2020/12/04 00:31:41;;;;;;;10.23;6.70;;;4.10;99.90;;;;;;5089745;28;20200;-72
2020/12/04 00:34:07;;;;;;;10.90;8.03;;;4.20;99.90;;;;;;5091056;28;20173;-72
2020/12/04 00:36:34;;;;;;;8.80;6.97;;;4.20;99.90;;;;;;5091222;28;20675;-72
2020/12/04 00:39:00;;;;;;;9.47;5.83;;;4.20;99.90;;;;;;5091229;28;20461;-72
2020/12/04 00:41:27;;;;;;;10.67;7.50;;;4.20;99.90;;;;;;5086355;28;20427;-72
2020/12/04 00:43:53;;;;;;;9.10;6.63;;;4.20;99.90;;;;;;5090484;28;20184;-72
2020/12/04 00:46:18;;;;;;;7.50;6.30;;;4.20;99.90;;;;;;5089717;28;20459;-71
2020/12/04 00:48:44;;;;;;;8.67;6.90;;;4.20;99.90;;;;;;5091092;28;20719;-72
2020/12/04 00:51:10;;;;;;;7.90;6.80;;;4.20;99.90;;;;;;5091277;28;20189;-72
2020/12/04 00:53:37;;;;;;;10.50;7.70;;;4.20;99.90;;;;;;5089851;28;20455;-72
2020/12/04 00:56:03;;;;;;;8.60;6.60;;;4.20;99.90;;;;;;5090721;28;20434;-71
2020/12/04 00:58:28;;;;;;;12.90;6.80;;;4.20;99.90;;;;;;5091204;28;20950;-72
2020/12/04 01:00:54;;;;;;;8.10;5.97;;;4.20;99.90;;;;;;5089238;28;20524;-72
2020/12/04 01:03:20;;;;;;;8.30;5.57;;;4.20;99.90;;;;;;5081955;28;20173;-71
2020/12/04 01:05:45;;;;;;;7.60;6.83;;;4.20;99.90;;;;;;5089749;28;20307;-72
2020/12/04 01:08:11;;;;;;;11.53;6.50;;;4.20;99.90;;;;;;5089931;28;20185;-72
2020/12/04 01:10:37;;;;;;;10.30;6.70;;;4.20;99.90;;;;;;5090296;28;20577;-72
2020/12/04 01:13:02;;;;;;;9.00;6.63;;;4.20;99.90;;;;;;5089946;28;20288;-72
2020/12/04 01:15:28;;;;;;;7.80;5.70;;;4.20;99.90;;;;;;5090009;28;20182;-72
2020/12/04 01:17:53;;;;;;;7.13;5.00;;;4.20;99.90;;;;;;5091424;28;20253;-72
2020/12/04 01:20:19;;;;;;;8.73;7.40;;;4.10;99.90;;;;;;5090048;28;20201;-72
2020/12/04 01:22:45;;;;;;;7.83;6.23;;;4.20;99.90;;;;;;5091078;28;20588;-72
2020/12/04 01:25:10;;;;;;;7.87;6.40;;;4.20;99.90;;;;;;5089936;28;20177;-72
2020/12/04 01:27:36;;;;;;;8.33;7.00;;;4.10;99.90;;;;;;5090904;28;20177;-72
2020/12/04 01:30:01;;;;;;;11.63;6.30;;;4.10;99.90;;;;;;5090029;28;20204;-72
2020/12/04 01:32:27;;;;;;;8.63;6.23;;;4.10;99.90;;;;;;5089400;28;20201;-72
2020/12/04 01:34:53;;;;;;;10.87;7.87;;;4.10;99.90;;;;;;5091165;28;20169;-71
2020/12/04 01:37:18;;;;;;;9.20;7.23;;;4.10;99.90;;;;;;5089373;28;20176;-72
2020/12/04 01:39:44;;;;;;;12.20;6.83;;;4.10;99.90;;;;;;5090383;28;20204;-71
2020/12/04 01:42:09;;;;;;;6.70;5.43;;;4.10;99.90;;;;;;5089805;28;20202;-72
2020/12/04 01:44:35;;;;;;;9.00;7.60;;;4.00;99.90;;;;;;5089897;28;20181;-71
2020/12/04 01:47:00;;;;;;;8.83;6.93;;;4.00;99.90;;;;;;5091464;28;20188;-72
2020/12/04 01:49:26;;;;;;;9.17;7.17;;;4.00;99.90;;;;;;5088657;28;20590;-72
2020/12/04 01:51:54;;;;;;;9.50;6.73;;;4.00;99.90;;;;;;5086173;28;20231;-72
2020/12/04 01:54:21;;;;;;;7.57;6.50;;;4.00;99.90;;;;;;5088817;28;20292;-72
2020/12/04 01:56:48;;;;;;;8.70;6.70;;;4.00;99.90;;;;;;5088924;28;20518;-72
2020/12/04 01:59:14;;;;;;;10.70;7.60;;;4.00;99.90;;;;;;5090432;28;20451;-72
2020/12/04 02:01:42;;;;;;;6.73;6.00;;;4.00;99.90;;;;;;5090087;28;20443;-72
2020/12/04 02:04:09;;;;;;;8.13;5.40;;;3.90;99.90;;;;;;5090192;28;20534;-72
2020/12/04 02:06:39;;;;;;;7.87;6.20;;;3.90;99.90;;;;;;5090030;28;20435;-72
2020/12/04 02:09:09;;;;;;;7.30;6.40;;;3.90;99.90;;;;;;5089105;28;20455;-72
2020/12/04 02:11:36;;;;;;;9.77;7.60;;;3.90;99.90;;;;;;5088010;28;20454;-71
2020/12/04 02:14:02;;;;;;;10.00;7.13;;;3.90;99.90;;;;;;5093146;28;20517;-72
2020/12/04 02:16:28;;;;;;;9.50;7.40;;;3.90;99.90;;;;;;5084615;28;20455;-72
2020/12/04 02:18:54;;;;;;;9.20;7.67;;;3.80;99.90;;;;;;5094991;28;20438;-71
2020/12/04 02:21:20;;;;;;;10.57;7.40;;;3.90;99.90;;;;;;5094770;28;21181;-72
2020/12/04 02:23:50;;;;;;;7.77;5.67;;;3.80;99.90;;;;;;5095189;28;20419;-71
2020/12/04 02:26:21;;;;;;;9.37;6.47;;;3.80;99.90;;;;;;5094303;28;20427;-72
2020/12/04 02:28:47;;;;;;;8.03;6.70;;;3.80;99.90;;;;;;5094829;28;20541;-72
2020/12/04 02:31:13;;;;;;;7.40;6.50;;;3.80;99.90;;;;;;5094531;28;20541;-72
2020/12/04 02:33:39;;;;;;;9.87;8.13;;;3.70;99.90;;;;;;5094799;28;20494;-71
2020/12/04 02:36:07;;;;;;;8.40;7.43;;;3.70;99.90;;;;;;5094691;28;20446;-72
2020/12/04 02:38:33;;;;;;;9.03;6.70;;;3.70;99.90;;;;;;5094553;28;20476;-72
2020/12/04 02:40:59;;;;;;;7.20;5.77;;;3.70;99.90;;;;;;5094450;28;20824;-72
2020/12/04 02:43:26;;;;;;;8.53;7.13;;;3.70;99.90;;;;;;5094351;28;20419;-72
2020/12/04 02:45:52;;;;;;;10.17;7.60;;;3.70;99.90;;;;;;5093160;28;20459;-72
2020/12/04 02:48:18;;;;;;;10.47;8.07;;;3.70;99.90;;;;;;5094153;28;20455;-72
2020/12/04 02:50:44;;;;;;;7.50;6.47;;;3.70;99.90;;;;;;5093209;28;20843;-72
2020/12/04 02:53:09;;;;;;;9.00;7.50;;;3.70;99.90;;;;;;5093979;28;20490;-72
2020/12/04 02:55:35;;;;;;;9.00;7.43;;;3.70;99.90;;;;;;5094234;28;20184;-71
2020/12/04 02:58:01;;;;;;;8.30;6.50;;;3.70;99.90;;;;;;5094312;28;20170;-72
2020/12/04 03:00:27;;;;;;;6.80;5.63;;;3.70;99.90;;;;;;5094142;28;20222;-72
2020/12/04 03:02:53;;;;;;;7.87;6.40;;;3.70;99.90;;;;;;5094268;28;20422;-72
2020/12/04 03:05:19;;;;;;;9.50;7.87;;;3.70;99.90;;;;;;5094005;28;20422;-72
2020/12/04 03:07:45;;;;;;;8.90;6.83;;;3.70;99.90;;;;;;5092924;28;20203;-72
2020/12/04 03:10:10;;;;;;;11.70;7.30;;;3.70;99.90;;;;;;5092705;28;20207;-72
2020/12/04 03:12:40;;;;;;;8.47;6.33;;;3.70;99.90;;;;;;5094010;28;20646;-71
2020/12/04 03:15:06;;;;;;;9.33;7.97;;;3.70;99.90;;;;;;5089962;28;20172;-72
2020/12/04 03:17:32;;;;;;;7.23;6.37;;;3.70;99.90;;;;;;5090354;28;20477;-72
2020/12/04 03:19:58;;;;;;;7.90;5.80;;;3.70;99.90;;;;;;5092288;28;20451;-72
2020/12/04 03:22:24;;;;;;;8.00;6.27;;;3.80;99.90;;;;;;5093545;28;20422;-71
2020/12/04 03:24:50;;;;;;;7.93;6.00;;;3.80;99.90;;;;;;5094016;28;20428;-72
2020/12/04 03:27:16;;;;;;;6.67;5.97;;;3.80;99.90;;;;;;5092867;28;20439;-72
2020/12/04 03:29:42;;;;;;;6.50;5.70;;;3.80;99.90;;;;;;5091419;28;20454;-72
2020/12/04 03:32:08;;;;;;;8.27;7.00;;;3.90;99.90;;;;;;5091763;28;20200;-72
2020/12/04 03:34:33;;;;;;;5.90;5.40;;;3.90;99.90;;;;;;5092727;28;20173;-71
2020/12/04 03:36:59;;;;;;;9.10;7.10;;;3.90;99.90;;;;;;5091743;28;20505;-72
2020/12/04 03:39:25;;;;;;;7.63;5.33;;;3.90;99.90;;;;;;5091923;28;20197;-72
2020/12/04 03:41:50;;;;;;;7.10;6.40;;;4.00;99.90;;;;;;5091222;28;20181;-72
2020/12/04 03:44:16;;;;;;;9.67;6.87;;;4.00;99.90;;;;;;5091060;28;20185;-72
2020/12/04 03:46:49;;;;;;;7.40;6.23;;;4.00;99.90;;;;;;5090983;28;20178;-73
2020/12/04 03:49:16;;;;;;;9.37;6.70;;;4.00;99.90;;;;;;5090229;28;20259;-72
2020/12/04 03:51:42;;;;;;;7.10;5.73;;;4.10;99.90;;;;;;5092367;28;20455;-72
2020/12/04 03:54:08;;;;;;;6.87;5.30;;;4.10;99.90;;;;;;5089687;28;20436;-72
2020/12/04 03:56:34;;;;;;;7.40;5.27;;;4.10;99.90;;;;;;5107395;28;20476;-72
2020/12/04 03:59:00;;;;;;;6.07;4.60;;;4.10;99.90;;;;;;5092407;28;20939;-72
2020/12/04 04:01:26;;;;;;;6.93;5.40;;;4.20;99.90;;;;;;5092304;28;20275;-72
2020/12/04 04:03:51;;;;;;;5.57;4.60;;;4.30;99.90;;;;;;5092500;28;20734;-71
2020/12/04 04:06:17;;;;;;;6.83;5.37;;;4.30;99.90;;;;;;5092476;28;20431;-71
2020/12/04 04:08:43;;;;;;;6.00;5.40;;;4.30;99.90;;;;;;5092428;28;20200;-72
2020/12/04 04:11:09;;;;;;;6.13;5.07;;;4.30;99.90;;;;;;5091893;28;20180;-72
2020/12/04 04:13:36;;;;;;;6.33;5.27;;;4.40;99.90;;;;;;5092337;28;20193;-72
2020/12/04 04:16:02;;;;;;;5.13;4.30;;;4.40;99.90;;;;;;5091762;28;20964;-72
2020/12/04 04:18:27;;;;;;;5.10;4.40;;;4.40;99.90;;;;;;5092227;28;20566;-71
2020/12/04 04:20:53;;;;;;;6.30;5.00;;;4.50;99.90;;;;;;5092238;28;20165;-72
2020/12/04 04:23:19;;;;;;;4.83;4.13;;;4.50;99.90;;;;;;5091717;28;20215;-72
2020/12/04 04:25:44;;;;;;;5.60;4.87;;;4.50;99.90;;;;;;5092113;28;20439;-72
2020/12/04 04:28:11;;;;;;;6.80;5.10;;;4.60;99.90;;;;;;5091658;28;20641;-73
2020/12/04 04:30:38;;;;;;;5.10;4.53;;;4.50;99.90;;;;;;5091964;28;20608;-72
2020/12/04 04:33:04;;;;;;;6.20;5.43;;;4.60;99.90;;;;;;5092514;28;20835;-72
2020/12/04 04:35:30;;;;;;;6.60;4.80;;;4.60;99.90;;;;;;5090596;28;20484;-72
2020/12/04 04:37:57;;;;;;;6.07;5.37;;;4.60;99.90;;;;;;5090799;28;20177;-72
2020/12/04 04:40:24;;;;;;;5.67;5.10;;;4.60;99.90;;;;;;5090156;28;20556;-72
2020/12/04 04:43:11;;;;;;;5.60;4.20;;;4.60;99.90;;;;;;5092618;28;20939;-72
2020/12/04 04:45:44;;;;;;;5.33;4.83;;;4.70;99.90;;;;;;5090817;28;20439;-72
2020/12/04 04:48:16;;;;;;;7.43;5.00;;;4.70;99.90;;;;;;5090751;28;20447;-72
2020/12/04 04:50:45;;;;;;;5.63;4.33;;;4.70;99.90;;;;;;5090570;28;20427;-72
2020/12/04 04:53:11;;;;;;;5.80;4.17;;;4.70;99.90;;;;;;5091772;28;20498;-72
2020/12/04 04:55:42;;;;;;;6.17;5.07;;;4.70;99.90;;;;;;5092109;28;20451;-72
2020/12/04 04:58:07;;;;;;;7.10;4.67;;;4.70;99.90;;;;;;5089551;28;20435;-72
2020/12/04 05:00:33;;;;;;;5.50;5.00;;;4.70;99.90;;;;;;5091330;28;20432;-72
2020/12/04 05:02:59;;;;;;;5.50;4.80;;;4.70;99.90;;;;;;5089255;28;20169;-72
2020/12/04 05:05:47;;;;;;;6.23;4.30;;;4.80;99.90;;;;;;5090842;28;20189;-72
2020/12/04 05:08:18;;;;;;;4.80;4.27;;;4.80;99.90;;;;;;5089815;28;20431;-72
2020/12/04 05:10:45;;;;;;;6.17;4.80;;;4.80;99.90;;;;;;5083224;28;20423;-72
2020/12/04 05:13:12;;;;;;;6.30;4.67;;;4.80;99.90;;;;;;5091421;28;20459;-72
2020/12/04 05:15:39;;;;;;;5.43;4.30;;;4.90;99.90;;;;;;5089972;28;20424;-72
2020/12/04 05:18:13;;;;;;;4.47;3.97;;;4.80;99.90;;;;;;5091707;28;20469;-72
2020/12/04 05:20:50;;;;;;;7.67;4.93;;;4.90;99.90;;;;;;5091270;28;20458;-72
2020/12/04 05:23:17;;;;;;;6.63;4.83;;;4.80;99.90;;;;;;5091286;28;20484;-72
2020/12/04 05:25:47;;;;;;;5.47;4.53;;;4.90;99.90;;;;;;5091088;28;20474;-72
2020/12/04 05:28:15;;;;;;;6.17;4.83;;;4.90;99.90;;;;;;5089969;28;20435;-71
2020/12/04 05:30:46;;;;;;;5.00;4.40;;;4.90;99.90;;;;;;5091700;28;20419;-72
2020/12/04 05:33:12;;;;;;;5.73;5.23;;;4.90;99.90;;;;;;5090931;28;20824;-72
2020/12/04 05:35:40;;;;;;;4.93;4.23;;;4.90;99.90;;;;;;5091065;28;20431;-72
2020/12/04 05:38:15;;;;;;;3.93;3.10;;;4.90;99.90;;;;;;5089958;28;20420;-72
2020/12/04 05:40:46;;;;;;;4.63;3.87;;;5.00;99.90;;;;;;5091092;28;20438;-72
2020/12/04 05:43:13;;;;;;;7.10;4.30;;;5.00;99.90;;;;;;5090712;28;20489;-72
2020/12/04 05:45:39;;;;;;;4.83;4.30;;;5.00;99.90;;;;;;5084027;28;20505;-72
2020/12/04 05:48:16;;;;;;;5.73;3.87;;;5.00;99.90;;;;;;5090659;28;20435;-72
2020/12/04 05:50:42;;;;;;;3.90;3.30;;;5.00;99.90;;;;;;5089701;28;20195;-72
2020/12/04 05:53:09;;;;;;;5.70;3.80;;;5.10;99.90;;;;;;5093112;28;20485;-72
2020/12/04 05:55:36;;;;;;;4.10;3.43;;;5.10;99.90;;;;;;5094680;28;20430;-72
2020/12/04 05:58:07;;;;;;;3.70;3.20;;;5.10;99.90;;;;;;5090775;28;20940;-72
2020/12/04 06:00:33;;;;;;;3.80;3.50;;;5.20;99.90;;;;;;5086244;28;20549;-72
2020/12/04 06:03:04;;;;;;;4.20;3.30;;;5.10;99.90;;;;;;5094182;28;20431;-72
2020/12/04 06:05:31;;;;;;;5.93;3.97;;;5.20;99.90;;;;;;5094798;28;20431;-72
2020/12/04 06:08:05;;;;;;;4.80;3.47;;;5.20;99.90;;;;;;5095306;28;20407;-72
2020/12/04 06:10:35;;;;;;;3.67;3.10;;;5.20;99.90;;;;;;5086903;28;20434;-72
2020/12/04 06:13:02;;;;;;;5.33;3.17;;;5.30;99.90;;;;;;5092950;28;20459;-72
2020/12/04 06:15:30;;;;;;;6.30;3.57;;;5.30;99.90;;;;;;5094575;28;20419;-72
2020/12/04 06:18:09;;;;;;;4.33;3.23;;;5.30;99.90;;;;;;5091905;28;20415;-72
2020/12/04 06:20:42;;;;;;;4.80;3.40;;;5.30;99.90;;;;;;5094459;28;20439;-72
2020/12/04 06:23:12;;;;;;;4.33;4.03;;;5.30;99.90;;;;;;5093911;28;20955;-72
2020/12/04 06:25:53;;;;;;;6.50;3.97;;;5.30;99.90;;;;;;5092581;28;20940;-72
2020/12/04 06:28:29;;;;;;;5.10;3.30;;;5.30;99.90;;;;;;5093417;28;20545;-72
2020/12/04 06:31:04;;;;;;;5.03;3.60;;;5.30;99.90;;;;;;5094067;28;20499;-72
2020/12/04 06:33:31;;;;;;;4.27;3.90;;;5.40;99.90;;;;;;5081863;28;20432;-72
2020/12/04 06:35:57;;;;;;;3.40;2.97;;;5.40;99.90;;;;;;5092650;28;20423;-72
2020/12/04 06:38:38;;;;;;;3.80;3.50;;;5.40;99.90;;;;;;5090594;28;20442;-72
2020/12/04 06:41:42;;;;;;;4.17;3.77;;;5.40;99.90;;;;;;5092022;28;20527;-72
2020/12/04 06:44:30;;;;;;;3.10;2.83;;;5.50;99.90;;;;;;5094074;28;20781;-72
2020/12/04 06:46:59;;;;;;;4.80;3.43;;;5.50;99.90;;;;;;5093336;28;20423;-73
2020/12/04 06:49:39;;;;;;;7.40;3.13;;;5.50;99.90;;;;;;5087714;28;20473;-72
2020/12/04 06:52:12;;;;;;;3.53;3.20;;;5.50;99.90;;;;;;5094175;28;20971;-72
2020/12/04 06:54:40;;;;;;;4.50;3.80;;;5.50;99.90;;;;;;5093985;28;20428;-73
2020/12/04 06:57:09;;;;;;;4.20;3.30;;;5.60;99.90;;;;;;5093225;28;20525;-72
2020/12/04 06:59:39;;;;;;;6.70;3.67;;;5.60;99.90;;;;;;5092488;28;20451;-73
2020/12/04 07:02:07;;;;;;;3.43;3.13;;;5.70;99.90;;;;;;5093322;28;20431;-72
2020/12/04 07:04:35;;;;;;;4.63;3.53;;;5.70;99.90;;;;;;5092831;28;20458;-72
2020/12/04 07:07:02;;;;;;;5.57;3.07;;;5.70;99.90;;;;;;5092731;28;20428;-72
2020/12/04 07:09:27;;;;;;;2.93;2.60;;;5.70;99.90;;;;;;5084745;28;20455;-72
2020/12/04 07:11:55;;;;;;;3.73;2.93;;;5.70;99.90;;;;;;5093509;28;20450;-72
2020/12/04 07:14:22;;;;;;;4.90;3.20;;;5.70;99.90;;;;;;5093482;28;20182;-72
2020/12/04 07:16:48;;;;;;;3.97;2.97;;;5.70;99.90;;;;;;5093390;28;20438;-72
2020/12/04 07:19:14;;;;;;;3.00;2.70;;;5.80;99.90;;;;;;5079406;28;20444;-72
2020/12/04 07:21:41;;;;;;;3.20;2.90;;;5.80;99.90;;;;;;5091266;28;20434;-73
2020/12/04 07:24:07;;;;;;;5.07;3.00;;;5.90;99.90;;;;;;5093440;28;20646;-72
2020/12/04 07:26:33;;;;;;;6.50;2.53;;;5.90;99.90;;;;;;5091677;28;20435;-72
2020/12/04 07:28:58;;;;;;;3.53;3.17;;;6.00;99.90;;;;;;5089435;28;20185;-72
2020/12/04 07:31:24;;;;;;;4.90;3.23;;;6.00;99.90;;;;;;5091135;28;20577;-72
2020/12/04 07:34:00;;;;;;;4.67;3.33;;;6.10;99.90;;;;;;5093249;28;20166;-72
2020/12/04 07:36:27;;;;;;;5.27;2.27;;;6.20;99.90;;;;;;5092924;28;20165;-72
2020/12/04 07:38:57;;;;;;;3.07;2.77;;;6.20;99.90;;;;;;5092990;28;20493;-72
2020/12/04 07:41:29;;;;;;;2.83;2.53;;;6.20;99.90;;;;;;5083426;28;20843;-72
2020/12/04 07:44:02;;;;;;;4.40;2.93;;;6.30;99.90;;;;;;5093037;28;20466;-72
2020/12/04 07:46:29;;;;;;;5.03;3.00;;;6.30;99.90;;;;;;5091767;28;20439;-72
2020/12/04 07:49:16;;;;;;;4.73;2.67;;;6.30;99.90;;;;;;5092059;28;20470;-72
2020/12/04 07:51:42;;;;;;;5.70;2.93;;;6.30;99.90;;;;;;5091948;28;20467;-72
2020/12/04 07:54:21;;;;;;;2.80;2.60;;;6.30;99.90;;;;;;5092611;28;20526;-72
2020/12/04 07:56:57;;;;;;;4.03;2.57;;;6.40;99.90;;;;;;5079639;28;20244;-72
2020/12/04 07:59:30;;;;;;;6.40;2.60;;;6.40;99.90;;;;;;5092097;28;20533;-72
2020/12/04 08:01:56;;;;;;;3.83;2.87;;;6.40;99.90;;;;;;5090824;28;20765;-70
2020/12/04 08:04:22;;;;;;;2.43;2.07;;;6.40;99.90;;;;;;5092972;28;20411;-70
2020/12/04 08:06:48;;;;;;;3.20;2.87;;;6.40;99.90;;;;;;5093063;28;20431;-70
2020/12/04 08:09:15;;;;;;;2.83;2.43;;;6.50;99.90;;;;;;5091780;28;20451;-71
2020/12/04 08:11:55;;;;;;;2.50;2.23;;;6.50;99.90;;;;;;5092278;28;21109;-71
2020/12/04 08:14:26;;;;;;;5.83;2.53;;;6.50;99.90;;;;;;5091520;28;21110;-69
2020/12/04 08:16:59;;;;;;;2.60;2.40;;;6.40;99.90;;;;;;5092264;28;21019;-70
2020/12/04 08:19:29;;;;;;;2.13;1.93;;;6.50;99.90;;;;;;5089860;28;20456;-70
2020/12/04 08:22:13;;;;;;;2.50;2.30;;;6.40;99.90;;;;;;5091948;28;20454;-70
2020/12/04 08:24:41;;;;;;;2.50;2.20;;;6.40;99.90;;;;;;5092165;28;20431;-71
2020/12/04 08:27:11;;;;;;;3.50;2.30;;;6.40;99.90;;;;;;5091992;28;20463;-70
2020/12/04 08:29:41;;;;;;;4.73;2.80;;;6.50;99.90;;;;;;5089363;28;20450;-71
2020/12/04 08:32:23;;;;;;;2.90;2.50;;;6.50;99.90;;;;;;5091665;28;20456;-70
2020/12/04 08:34:49;;;;;;;3.50;2.13;;;6.60;99.90;;;;;;5091886;28;20480;-70
2020/12/04 08:37:17;;;;;;;2.63;2.03;;;6.60;99.90;;;;;;5089980;28;21109;-70
2020/12/04 08:39:50;;;;;;;5.03;2.27;;;6.60;99.90;;;;;;5093020;28;20436;-70
2020/12/04 08:42:33;;;;;;;4.60;2.60;;;6.80;99.90;;;;;;5089439;28;20513;-71
2020/12/04 08:45:04;;;;;;;6.00;2.73;;;7.00;99.90;;;;;;5091410;28;20445;-70
2020/12/04 08:47:33;;;;;;;8.73;2.37;;;7.00;99.90;;;;;;5089456;28;20411;-70
2020/12/04 08:50:06;;;;;;;2.90;1.30;;;7.00;99.90;;;;;;5092430;28;20465;-70
2020/12/04 08:52:53;;;;;;;2.20;2.00;;;7.00;99.90;;;;;;5091198;28;20971;-70
2020/12/04 08:55:26;;;;;;;2.60;1.97;;;6.90;99.90;;;;;;5091726;28;20427;-70
2020/12/04 08:57:55;;;;;;;2.60;2.13;;;7.00;99.90;;;;;;5089499;28;20451;-70
2020/12/04 09:00:27;;;;;;;2.53;2.03;;;7.00;99.90;;;;;;5081376;28;20455;-70
2020/12/04 09:02:53;;;;;;;3.10;2.10;;;7.00;99.90;;;;;;5092347;28;20432;-70
2020/12/04 09:05:18;;;;;;;2.53;1.60;;;7.00;99.90;;;;;;5091346;28;20435;-70
2020/12/04 09:07:45;;;;;;;4.40;1.90;;;7.20;99.90;;;;;;5091334;28;20268;-69
2020/12/04 09:10:15;;;;;;;2.60;2.20;;;7.30;99.90;;;;;;5092074;28;20241;-69
2020/12/04 09:12:43;;;;;;;4.30;2.50;;;7.30;99.90;;;;;;5091757;28;20462;-70
2020/12/04 09:15:11;;;;;;;2.30;1.40;;;7.30;99.90;;;;;;5090329;28;20485;-70
2020/12/04 09:17:37;;;;;;;3.53;2.10;;;7.30;99.90;;;;;;5091748;28;20427;-70
2020/12/04 09:20:06;;;;;;;2.30;1.70;;;7.20;99.90;;;;;;5089998;28;20502;-70
2020/12/04 09:22:31;;;;;;;3.67;2.97;;;7.30;99.90;;;;;;5084847;28;20896;-70
2020/12/04 09:24:59;;;;;;;2.60;1.73;;;7.30;99.90;;;;;;5090325;28;20474;-70
2020/12/04 09:27:25;;;;;;;3.10;1.80;;;7.30;99.90;;;;;;5088988;28;20186;-71
2020/12/04 09:29:51;;;;;;;2.03;1.83;;;7.20;99.90;;;;;;5089895;28;20458;-70
2020/12/04 09:32:17;;;;;;;2.63;1.90;;;7.30;99.90;;;;;;5090047;28;20291;-70
2020/12/04 09:34:46;;;;;;;1.90;1.50;;;7.30;99.90;;;;;;5088735;28;20683;-69
2020/12/04 09:37:16;;;;;;;2.30;2.10;;;7.40;99.90;;;;;;5088309;28;20432;-70
2020/12/04 09:39:44;;;;;;;2.10;1.50;;;7.40;99.90;;;;;;5088302;28;20891;-70
2020/12/04 09:42:14;;;;;;;2.10;1.90;;;7.50;99.90;;;;;;5089794;28;20458;-70
2020/12/04 09:44:42;;;;;;;4.57;2.10;;;7.50;99.90;;;;;;5088636;28;20435;-70
2020/12/04 09:47:08;;;;;;;2.13;1.93;;;7.50;99.90;;;;;;5087796;28;20438;-71
2020/12/04 09:49:34;;;;;;;2.60;2.10;;;7.50;99.90;;;;;;5089886;28;21002;-71
2020/12/04 09:52:00;;;;;;;2.70;1.97;;;7.50;99.90;;;;;;5089553;28;20458;-70
2020/12/04 09:54:27;;;;;;;2.93;1.70;;;7.50;99.90;;;;;;5087179;28;20442;-70
2020/12/04 09:56:54;;;;;;;1.80;1.70;;;7.50;99.90;;;;;;5089259;28;20950;-69
2020/12/04 09:59:24;;;;;;;2.23;2.03;;;7.50;99.90;;;;;;5087537;28;20502;-69
2020/12/04 10:01:52;;;;;;;2.17;1.60;;;7.40;99.90;;;;;;5089527;28;20522;-70
2020/12/04 10:04:18;;;;;;;3.90;2.30;;;7.50;99.90;;;;;;5089591;28;20931;-70
2020/12/04 10:06:47;;;;;;;2.00;1.50;;;7.50;99.90;;;;;;5090224;28;20465;-70
2020/12/04 10:09:14;;;;;;;1.93;1.57;;;7.60;99.90;;;;;;5089892;28;20470;-70
2020/12/04 10:11:40;;;;;;;3.10;1.63;;;7.60;99.90;;;;;;5090106;28;20451;-70
2020/12/04 10:14:06;;;;;;;2.33;1.43;;;7.70;99.90;;;;;;5088853;28;20435;-70
2020/12/04 10:16:31;;;;;;;1.80;1.10;;;7.80;99.90;;;;;;5088314;28;20845;-70
2020/12/04 10:18:58;;;;;;;1.70;1.60;;;7.80;99.90;;;;;;5086192;28;20204;-70
2020/12/04 10:21:31;;;;;;;2.47;1.20;;;7.90;99.90;;;;;;5089542;28;20169;-70
2020/12/04 10:23:56;;;;;;;1.20;1.10;;;8.00;99.90;;;;;;5086470;28;20799;-71
2020/12/04 10:26:22;;;;;;;5.33;2.10;;;8.70;99.90;;;;;;5089376;28;20443;-70
2020/12/04 10:28:48;;;;;;;1.87;1.20;;;9.30;99.90;;;;;;5088242;28;20198;-71
2020/12/04 10:31:14;;;;;;;2.67;1.20;;;9.60;99.90;;;;;;5087763;28;20178;-70
2020/12/04 10:33:40;;;;;;;2.80;1.60;;;9.60;99.90;;;;;;5089775;28;20638;-70
2020/12/04 10:36:06;;;;;;;1.67;1.43;;;9.70;99.90;;;;;;5089989;28;20449;-70
2020/12/04 10:38:32;;;;;;;2.07;1.53;;;9.90;99.90;;;;;;5091179;28;20471;-70
2020/12/04 10:40:58;;;;;;;1.70;1.37;;;10.20;99.90;;;;;;5092078;28;20181;-71
2020/12/04 10:43:24;;;;;;;3.10;1.53;;;10.40;99.90;;;;;;5091472;28;20226;-70
2020/12/04 10:45:50;;;;;;;3.27;1.40;;;10.30;99.90;;;;;;5091632;28;20868;-70
2020/12/04 10:48:16;;;;;;;3.10;1.53;;;9.80;99.90;;;;;;5092970;28;20451;-70
2020/12/04 10:50:44;;;;;;;1.40;0.83;;;9.30;99.90;;;;;;5091212;28;20435;-70
2020/12/04 10:53:09;;;;;;;6.97;1.00;;;9.20;99.90;;;;;;5092705;28;20215;-70
2020/12/04 10:55:35;;;;;;;2.33;1.00;;;9.00;99.90;;;;;;5089845;28;20526;-70
2020/12/04 10:58:00;;;;;;;1.83;0.80;;;8.90;99.90;;;;;;5091019;28;20174;-70
2020/12/04 11:00:26;;;;;;;2.50;0.80;;;8.90;99.90;;;;;;5091502;28;20231;-69
2020/12/04 11:02:57;;;;;;;0.80;0.50;;;8.70;99.90;;;;;;5092703;28;20192;-70
2020/12/04 11:05:40;;;;;;;1.10;0.60;;;8.70;99.90;;;;;;5092312;28;20231;-70
2020/12/04 11:08:06;;;;;;;1.47;0.60;;;8.70;99.90;;;;;;5092097;28;20518;-70
2020/12/04 11:10:32;;;;;;;2.60;0.60;;;8.60;99.90;;;;;;5092242;28;20837;-70
2020/12/04 11:12:58;;;;;;;1.17;0.93;;;8.50;99.90;;;;;;5093177;28;20459;-70
2020/12/04 11:15:23;;;;;;;2.80;1.10;;;8.50;99.90;;;;;;5092145;28;20428;-70
2020/12/04 11:17:49;;;;;;;5.47;0.80;;;8.50;99.90;;;;;;5092979;28;20242;-70
2020/12/04 11:20:17;;;;;;;3.30;1.30;;;8.40;99.90;;;;;;5091527;28;20197;-70
2020/12/04 11:22:43;;;;;;;0.90;0.70;;;8.50;99.90;;;;;;5092103;28;20623;-70
2020/12/04 11:25:09;;;;;;;1.53;0.60;;;8.40;99.90;;;;;;5086153;28;20428;-70
2020/12/04 11:27:41;;;;;;;1.10;0.90;;;8.40;99.90;;;;;;5089193;28;20177;-70
2020/12/04 11:30:08;;;;;;;1.00;0.70;;;8.50;99.90;;;;;;5089850;28;20458;-70
2020/12/04 11:32:34;;;;;;;4.17;2.70;;;8.60;99.90;;;;;;5090945;28;20982;-71
2020/12/04 11:35:00;;;;;;;0.90;0.70;;;8.60;99.90;;;;;;5090698;28;20435;-70
2020/12/04 11:37:26;;;;;;;0.80;0.60;;;8.70;99.90;;;;;;5091831;28;20170;-70
2020/12/04 11:39:52;;;;;;;0.87;0.60;;;8.80;99.90;;;;;;5090696;28;20696;-70
2020/12/04 11:42:17;;;;;;;1.40;0.80;;;9.00;99.90;;;;;;5091770;28;20435;-70
2020/12/04 11:44:43;;;;;;;1.10;0.70;;;9.10;99.90;;;;;;5091265;28;20189;-70
2020/12/04 11:47:09;;;;;;;1.13;0.70;;;9.20;99.90;;;;;;5089867;28;20181;-70
2020/12/04 11:49:34;;;;;;;1.10;0.70;;;9.20;99.90;;;;;;5090938;28;20867;-70
2020/12/04 11:52:00;;;;;;;1.03;0.90;;;9.20;99.90;;;;;;5091898;28;20205;-69
2020/12/04 11:54:25;;;;;;;1.57;0.87;;;9.20;99.90;;;;;;5090605;28;20209;-71
2020/12/04 11:56:51;;;;;;;1.40;1.00;;;9.10;99.90;;;;;;5091471;28;20260;-69
2020/12/04 11:59:18;;;;;;;0.90;0.77;;;9.10;99.90;;;;;;5089659;28;20197;-70
2020/12/04 12:01:44;;;;;;;1.57;1.30;;;9.10;99.90;;;;;;5089741;28;20546;-71
2020/12/04 12:04:13;;;;;;;2.93;0.90;;;9.10;99.90;;;;;;5091525;28;20530;-70
2020/12/04 12:06:40;;;;;;;2.27;0.90;;;8.90;99.90;;;;;;5090345;28;20231;-70
2020/12/04 12:09:05;;;;;;;1.40;1.23;;;9.00;99.90;;;;;;5089801;28;20960;-70
2020/12/04 12:11:31;;;;;;;1.73;0.90;;;9.00;99.90;;;;;;5089617;28;20463;-70
2020/12/04 12:13:56;;;;;;;3.57;1.27;;;9.10;99.90;;;;;;5084183;28;20548;-70
2020/12/04 12:16:22;;;;;;;2.00;1.10;;;9.10;99.90;;;;;;5084491;28;20178;-70
2020/12/04 12:18:48;;;;;;;2.07;0.87;;;9.20;99.90;;;;;;5084888;28;20193;-70
2020/12/04 12:21:13;;;;;;;4.63;1.83;;;9.20;99.90;;;;;;5083944;28;20204;-70
2020/12/04 12:23:39;;;;;;;2.40;1.10;;;9.30;99.90;;;;;;5086894;28;20181;-71
2020/12/04 12:26:06;;;;;;;1.40;1.30;;;9.30;99.90;;;;;;5090732;28;20173;-71
2020/12/04 12:28:32;;;;;;;3.67;1.10;;;9.20;99.90;;;;;;5088787;28;20276;-70
2020/12/04 12:30:59;;;;;;;4.60;1.23;;;9.10;99.90;;;;;;5089008;28;20522;-72
2020/12/04 12:33:24;;;;;;;2.57;1.20;;;9.10;99.90;;;;;;5088205;28;20469;-72
2020/12/04 12:35:50;;;;;;;1.93;1.00;;;9.00;99.90;;;;;;5083857;28;20795;-72
2020/12/04 12:38:16;;;;;;;2.70;1.10;;;8.90;99.90;;;;;;5085937;28;20267;-72
2020/12/04 12:40:41;;;;;;;2.10;1.23;;;8.80;99.90;;;;;;5083672;28;20176;-72
2020/12/04 12:43:07;;;;;;;1.70;1.03;;;8.70;99.90;;;;;;5086015;28;20212;-72
2020/12/04 12:45:33;;;;;;;1.93;1.13;;;8.70;99.90;;;;;;5084290;28;20185;-72
2020/12/04 12:47:58;;;;;;;2.50;1.37;;;8.70;99.90;;;;;;5084283;28;20197;-72
2020/12/04 12:50:24;;;;;;;1.00;0.70;;;8.60;99.90;;;;;;5083619;28;20205;-72
2020/12/04 12:52:50;;;;;;;1.67;0.90;;;8.50;99.90;;;;;;5090045;28;20220;-72
2020/12/04 12:55:15;;;;;;;1.00;0.90;;;8.50;99.90;;;;;;5090023;28;20181;-72
2020/12/04 12:57:41;;;;;;;0.90;0.70;;;8.40;99.90;;;;;;5088677;28;20184;-72